首页
METAR-TAF:

METAR-TAF

机场 :

羅馬-菲烏米奇諾機場

罗马菲乌米奇诺, 意大利

纬度: 41-48N, 经度: 012-14E, 海拔: 2米

当前天气观测

该预报发布于30分钟前的01:50 UTC
风速5节,风向北转东北
温度 21°C
湿度 94%
气压 1013 hPa
能见度10公里或以上
少量云层高于1500英尺

METAR: LIRF 230150Z 02005KT 9999 FEW015 21/20 Q1013 NOSIG

时间: 04:20 (02:20 UTC)

预报

该预报发布于3小时和20分钟前的23:00 UTC
预报有效从23日的 00点(UTC)到 24日的 06点(UTC)
风速7节,风向
能见度10公里或以上
少量云层高于4000英尺
成为
从 23日的 08点(UTC)到 23日的 10点(UTC)
风速10节,风向西转西南
成为
从 23日的 15点(UTC)到 23日的 17点(UTC)
风速5节,风向多变

TAF: LIRF 222300Z 2300/2406 08007KT 9999 FEW040 BECMG 2308/2310 24010KT BECMG 2315/2317 VRB05KT

超过4000个机场的气象观测和天气预报(METAR&TAF报告)。

可查询的气象台以黄色和红色小点在地图上表示。

将鼠标移到小点上方,可查看气象台名称。

然后点击查看天气观测和预报。

如需切换地图:点击带黑十字的绿色按钮放大地图;点击带横线的绿色按钮缩小地图;或者点击绿色箭头查看邻近地区的地图。


METAR-TAF: